Time;durP1;ratioP1;P1;durP2;ratioP2;P2;SDS_P1;SDS_P2;PMS_P1;PMS_P2;Temp;Humidity;BMP_temperature;BMP_pressure;BME280_temperature;BME280_humidity;BME280_pressure;Samples;Min_cycle;Max_cycle;Signal;HPM_P1;HPM_P2
2021/07/07 00:00:42;;;;;;;3.73;2.40;;;;;;;20.98;100.00;99998.24;1791418;78;20989;-65
2021/07/07 00:03:09;;;;;;;4.80;2.33;;;;;;;21.00;100.00;100000.66;1790532;79;21018;-65
2021/07/07 00:05:35;;;;;;;6.57;3.20;;;;;;;20.97;100.00;100006.46;1791474;79;21066;-67
2021/07/07 00:08:03;;;;;;;4.13;3.03;;;;;;;21.07;100.00;100002.02;1789999;78;21072;-66
2021/07/07 00:10:33;;;;;;;7.17;2.60;;;;;;;21.05;100.00;100003.31;1790263;78;21135;-62
2021/07/07 00:12:59;;;;;;;4.03;2.37;;;;;;;20.87;100.00;100008.02;1791660;78;21372;-69
2021/07/07 00:15:31;;;;;;;4.43;2.70;;;;;;;20.82;100.00;100007.17;1789505;78;21013;-62
2021/07/07 00:17:56;;;;;;;5.10;3.00;;;;;;;20.72;100.00;100008.44;1790746;79;21121;-68
2021/07/07 00:20:23;;;;;;;6.87;3.07;;;;;;;20.64;100.00;100011.83;1791736;78;21080;-68
2021/07/07 00:22:51;;;;;;;6.00;2.80;;;;;;;20.68;100.00;100012.12;1791125;78;22585;-66
2021/07/07 00:25:19;;;;;;;5.80;2.60;;;;;;;20.89;100.00;100022.32;1789436;78;21358;-68
2021/07/07 00:27:45;;;;;;;5.30;2.30;;;;;;;21.03;100.00;100022.14;1789301;79;21252;-69
2021/07/07 00:30:14;;;;;;;5.97;2.17;;;;;;;21.06;100.00;100030.91;1794936;78;20935;-68
2021/07/07 00:32:40;;;;;;;4.67;2.73;;;;;;;21.08;100.00;100027.45;1792759;79;21112;-67
2021/07/07 00:35:09;;;;;;;4.83;2.60;;;;;;;21.06;100.00;100028.25;1792221;78;21192;-64
2021/07/07 00:37:36;;;;;;;10.13;3.07;;;;;;;20.98;100.00;100025.27;1793328;79;21466;-68
2021/07/07 00:40:05;;;;;;;6.13;3.17;;;;;;;20.70;100.00;100025.12;1792727;78;21002;-69
2021/07/07 00:42:32;;;;;;;6.90;2.50;;;;;;;20.80;100.00;100025.20;1791218;79;20982;-68
2021/07/07 00:44:59;;;;;;;8.23;3.00;;;;;;;20.85;100.00;100027.86;1794037;79;21096;-69
2021/07/07 00:47:25;;;;;;;5.30;2.83;;;;;;;20.95;100.00;100028.43;1790600;78;21186;-68
2021/07/07 00:49:53;;;;;;;7.13;3.20;;;;;;;20.96;100.00;100028.72;1793817;79;20985;-68
2021/07/07 00:52:20;;;;;;;4.83;2.67;;;;;;;21.05;100.00;100027.17;1792430;79;20974;-69
2021/07/07 00:54:47;;;;;;;5.30;2.57;;;;;;;21.05;100.00;100024.52;1791964;79;21046;-68
2021/07/07 00:57:15;;;;;;;7.07;3.13;;;;;;;21.10;100.00;100031.16;1792755;79;21072;-67
2021/07/07 00:59:41;;;;;;;5.70;3.13;;;;;;;21.05;100.00;100031.94;1792983;78;21187;-67
2021/07/07 01:02:10;;;;;;;8.33;3.73;;;;;;;21.03;100.00;100030.62;1793352;79;20978;-70
2021/07/07 01:04:37;;;;;;;5.57;2.03;;;;;;;20.89;100.00;100030.27;1790361;79;21484;-67
2021/07/07 01:07:05;;;;;;;5.07;3.13;;;;;;;20.83;100.00;100036.05;1791969;78;21512;-70
2021/07/07 01:09:35;;;;;;;5.20;2.80;;;;;;;20.95;100.00;100040.36;1789001;78;20986;-65
2021/07/07 01:12:03;;;;;;;4.83;2.80;;;;;;;20.93;100.00;100040.63;1789615;79;22158;-68
2021/07/07 01:14:29;;;;;;;5.50;2.40;;;;;;;20.94;100.00;100041.41;1789651;79;21521;-67
2021/07/07 01:16:56;;;;;;;3.13;2.00;;;;;;;20.93;100.00;100047.78;1790402;79;20927;-68
2021/07/07 01:19:23;;;;;;;3.23;1.87;;;;;;;20.80;100.00;100043.73;1789760;79;21076;-70
2021/07/07 01:21:50;;;;;;;4.73;2.47;;;;;;;20.82;100.00;100043.73;1789475;78;20939;-68
2021/07/07 01:24:19;;;;;;;4.83;2.70;;;;;;;20.79;100.00;100045.56;1790398;79;21132;-69
2021/07/07 01:26:45;;;;;;;6.07;2.37;;;;;;;20.97;100.00;100044.36;1788376;78;21018;-64
2021/07/07 01:29:13;;;;;;;4.20;2.13;;;;;;;20.95;100.00;100041.17;1791298;79;21112;-69
2021/07/07 01:31:44;;;;;;;5.87;2.30;;;;;;;20.92;100.00;100038.24;1788933;79;21006;-68
2021/07/07 01:34:11;;;;;;;2.73;1.80;;;;;;;20.92;100.00;100044.34;1790595;79;21105;-67
2021/07/07 01:36:38;;;;;;;5.03;2.10;;;;;;;21.05;100.00;100043.86;1790282;78;21137;-64
2021/07/07 01:39:05;;;;;;;4.33;2.47;;;;;;;21.10;100.00;100042.58;1788612;78;21085;-69
2021/07/07 01:41:32;;;;;;;6.63;2.00;;;;;;;21.07;100.00;100044.41;1793212;79;20986;-70
2021/07/07 01:43:59;;;;;;;6.30;2.90;;;;;;;21.16;100.00;100042.59;1790235;79;21561;-69
2021/07/07 01:46:26;;;;;;;3.37;1.73;;;;;;;21.13;100.00;100035.42;1790196;78;20967;-70
2021/07/07 01:48:54;;;;;;;3.17;1.73;;;;;;;21.20;100.00;100041.81;1791261;78;21492;-68
2021/07/07 01:51:20;;;;;;;9.47;2.30;;;;;;;21.23;100.00;100039.98;1789041;78;21032;-70
2021/07/07 01:53:48;;;;;;;4.63;2.47;;;;;;;21.47;100.00;100041.69;1791118;79;21013;-70
2021/07/07 01:56:14;;;;;;;6.43;2.30;;;;;;;21.40;100.00;100041.13;1791248;78;21066;-69
2021/07/07 01:58:41;;;;;;;5.63;2.00;;;;;;;21.53;100.00;100038.53;1790330;78;21046;-69
2021/07/07 02:01:07;;;;;;;7.83;2.80;;;;;;;21.61;100.00;100034.84;1789801;79;21121;-64
2021/07/07 02:03:36;;;;;;;3.93;1.80;;;;;;;21.70;100.00;100030.34;1791168;79;21528;-68
2021/07/07 02:06:02;;;;;;;3.63;2.03;;;;;;;21.85;100.00;100033.03;1768127;79;21000;-67
2021/07/07 02:08:29;;;;;;;4.27;2.10;;;;;;;21.21;100.00;100041.28;1768657;79;21021;-70
2021/07/07 02:10:57;;;;;;;4.13;2.07;;;;;;;20.87;100.00;100043.78;1769183;79;20898;-63
2021/07/07 02:13:24;;;;;;;7.47;2.30;;;;;;;20.69;100.00;100046.84;1767602;79;21575;-70
2021/07/07 02:15:51;;;;;;;4.40;2.20;;;;;;;20.47;100.00;100053.53;1768433;79;20999;-67
2021/07/07 02:18:19;;;;;;;4.07;1.80;;;;;;;20.75;100.00;100052.95;1768896;79;20969;-68
2021/07/07 02:20:47;;;;;;;7.03;2.13;;;;;;;20.41;100.00;100055.33;1769909;78;21027;-67
2021/07/07 02:23:14;;;;;;;4.07;2.20;;;;;;;20.37;100.00;100060.86;1767559;78;21072;-67
2021/07/07 02:25:45;;;;;;;3.27;2.00;;;;;;;20.94;100.00;100057.31;1770790;78;22182;-67
2021/07/07 02:28:15;;;;;;;3.00;1.40;;;;;;;20.84;100.00;100058.86;1767348;79;20953;-68
2021/07/07 02:30:42;;;;;;;3.50;1.65;;;;;;;20.69;100.00;100060.62;1767174;79;21001;-65
2021/07/07 02:33:09;;;;;;;4.83;1.90;;;;;;;20.94;100.00;100063.41;1766218;80;21068;-72
2021/07/07 02:35:39;;;;;;;6.77;1.93;;;;;;;20.80;100.00;100063.61;1771115;78;21037;-74
2021/07/07 02:38:08;;;;;;;6.73;1.90;;;;;;;20.99;100.00;100056.83;1767190;78;21958;-74
2021/07/07 02:40:35;;;;;;;6.27;2.30;;;;;;;21.12;100.00;100057.69;1769848;78;20934;-73
2021/07/07 02:43:05;;;;;;;5.27;2.20;;;;;;;21.15;100.00;100059.03;1766899;79;21004;-72
2021/07/07 02:45:31;;;;;;;2.60;1.37;;;;;;;21.09;100.00;100061.37;1767540;79;21310;-72
2021/07/07 02:47:58;;;;;;;7.17;1.70;;;;;;;21.18;100.00;100060.38;1764693;79;21718;-72
2021/07/07 02:50:24;;;;;;;3.63;1.93;;;;;;;21.18;100.00;100068.33;1771340;78;21138;-73
2021/07/07 02:52:51;;;;;;;3.47;2.00;;;;;;;21.43;100.00;100068.45;1769033;78;21029;-64
2021/07/07 02:55:20;;;;;;;5.97;1.77;;;;;;;20.94;100.00;100071.36;1773329;79;20995;-66
2021/07/07 02:57:57;;;;;;;4.80;1.83;;;;;;;20.86;100.00;100069.98;1769865;79;20985;-74
2021/07/07 03:00:36;;;;;;;3.93;1.63;;;;;;;21.03;100.00;100075.14;1771107;78;21086;-73
2021/07/07 03:03:22;;;;;;;3.60;1.80;;;;;;;21.09;100.00;100076.74;1784793;80;21752;-69
2021/07/07 03:05:56;;;;;;;5.67;1.90;;;;;;;21.31;100.00;100081.90;1729875;82;38513;-75
2021/07/07 03:08:25;;;;;;;4.57;2.13;;;;;;;20.75;100.00;100086.07;1785177;79;21728;-72
2021/07/07 03:10:52;;;;;;;5.47;1.97;;;;;;;21.18;100.00;100086.89;1783091;80;21070;-73
2021/07/07 03:13:20;;;;;;;2.63;1.53;;;;;;;21.35;100.00;100095.47;1744751;81;21101;-76
2021/07/07 03:15:46;;;;;;;4.47;1.83;;;;;;;21.60;100.00;100098.23;1785509;79;22119;-73
2021/07/07 03:18:13;;;;;;;2.83;1.80;;;;;;;21.37;100.00;100100.80;1744977;81;21022;-74
2021/07/07 03:20:43;;;;;;;2.60;1.80;;;;;;;21.43;100.00;100096.30;1785120;79;20947;-74
2021/07/07 03:23:11;;;;;;;3.90;1.60;;;;;;;21.73;100.00;100099.59;1745748;81;20985;-65
2021/07/07 03:25:37;;;;;;;5.30;1.93;;;;;;;21.80;100.00;100102.02;1784714;79;20967;-73
2021/07/07 03:28:04;;;;;;;3.27;1.70;;;;;;;21.94;100.00;100104.45;1785370;79;21140;-74
2021/07/07 03:30:32;;;;;;;3.77;1.60;;;;;;;21.72;100.00;100108.63;1745179;81;21030;-71
2021/07/07 03:33:01;;;;;;;5.23;1.83;;;;;;;21.66;100.00;100114.16;1785228;79;21045;-73
2021/07/07 03:35:28;;;;;;;3.40;1.90;;;;;;;21.59;100.00;100117.88;1784573;80;20999;-74
2021/07/07 03:37:55;;;;;;;5.43;1.90;;;;;;;21.66;100.00;100120.80;1778779;80;21017;-73
2021/07/07 03:40:21;;;;;;;3.57;1.53;;;;;;;21.74;100.00;100116.31;1745196;81;22229;-73
2021/07/07 03:42:48;;;;;;;5.00;2.07;;;;;;;21.77;100.00;100121.90;1784452;79;21564;-72
2021/07/07 03:45:18;;;;;;;6.13;2.20;;;;;;;21.63;100.00;100119.48;1784385;79;20998;-70
2021/07/07 03:47:45;;;;;;;3.07;1.67;;;;;;;21.80;100.00;100127.22;1745794;81;20942;-76
2021/07/07 03:50:12;;;;;;;3.07;1.83;;;;;;;21.60;100.00;100127.42;1780429;80;21002;-76
2021/07/07 03:52:39;;;;;;;4.20;2.37;;;;;;;21.69;100.00;100122.94;1744094;80;21148;-64
2021/07/07 03:55:13;;;;;;;3.10;1.70;;;;;;;21.67;100.00;100130.34;1784142;79;21148;-72
2021/07/07 03:57:40;;;;;;;4.57;2.00;;;;;;;21.86;100.00;100126.20;1785272;80;21829;-71
2021/07/07 04:00:12;;;;;;;7.57;1.90;;;;;;;21.99;100.00;100134.98;1785902;79;21153;-69
2021/07/07 04:02:38;;;;;;;6.00;1.77;;;;;;;22.10;100.00;100133.94;1742056;82;20992;-68
2021/07/07 04:05:07;;;;;;;4.10;1.80;;;;;;;22.17;100.00;100131.08;1713434;82;21115;-69
2021/07/07 04:07:34;;;;;;;3.43;1.90;;;;;;;22.38;100.00;100128.44;1742611;80;21006;-71
2021/07/07 04:10:01;;;;;;;5.77;1.77;;;;;;;22.40;100.00;100131.11;1742538;80;20969;-73
2021/07/07 04:12:27;;;;;;;4.37;1.77;;;;;;;22.41;100.00;100127.92;1741443;82;21050;-68
2021/07/07 04:14:55;;;;;;;5.10;2.30;;;;;;;22.59;100.00;100130.84;1711154;82;21075;-62
2021/07/07 04:17:21;;;;;;;7.73;1.63;;;;;;;22.74;100.00;100134.03;1741915;82;22089;-68
2021/07/07 04:19:48;;;;;;;3.03;1.77;;;;;;;22.89;100.00;100131.11;1742658;81;21429;-70
2021/07/07 04:22:15;;;;;;;6.43;2.40;;;;;;;23.01;100.00;100125.80;1742055;82;21046;-70
2021/07/07 04:24:42;;;;;;;5.90;2.00;;;;;;;23.06;100.00;100132.42;1743887;80;21005;-67
2021/07/07 04:27:09;;;;;;;6.93;2.00;;;;;;;23.09;100.00;100130.31;1741163;82;21046;-66
2021/07/07 04:29:36;;;;;;;4.90;2.10;;;;;;;23.21;100.00;100134.80;1741666;81;21813;-69
2021/07/07 04:32:04;;;;;;;4.27;1.90;;;;;;;23.30;100.00;100131.86;1739208;80;21479;-67
2021/07/07 04:34:31;;;;;;;8.60;2.87;;;;;;;23.43;100.00;100129.95;1737637;82;21046;-67
2021/07/07 04:36:58;;;;;;;4.23;2.00;;;;;;;23.45;100.00;100137.14;1740655;81;21697;-63
2021/07/07 04:39:24;;;;;;;5.93;2.03;;;;;;;23.55;100.00;100136.29;1740904;82;21429;-68
2021/07/07 04:41:51;;;;;;;5.80;2.60;;;;;;;23.44;100.00;100139.52;1742764;80;21130;-71
2021/07/07 04:44:19;;;;;;;4.43;2.10;;;;;;;23.28;100.00;100141.96;1752168;80;20919;-69
2021/07/07 04:46:45;;;;;;;4.63;1.97;;;;;;;23.22;100.00;100154.48;1757531;81;21061;-70
2021/07/07 04:49:12;;;;;;;6.80;2.43;;;;;;;23.70;100.00;100154.09;1756424;81;21104;-64
2021/07/07 04:51:38;;;;;;;5.10;2.17;;;;;;;23.60;100.00;100162.08;1757979;81;21904;-70
2021/07/07 04:54:05;;;;;;;4.27;2.30;;;;;;;23.58;100.00;100162.90;1756261;81;21088;-71
2021/07/07 04:56:32;;;;;;;3.70;2.10;;;;;;;23.26;100.00;100168.02;1758051;81;20987;-70
2021/07/07 04:59:00;;;;;;;6.27;2.20;;;;;;;23.34;100.00;100170.69;1758218;81;20926;-70
2021/07/07 05:01:26;;;;;;;4.03;2.00;;;;;;;23.33;100.00;100171.73;1757465;81;20920;-67
2021/07/07 05:03:53;;;;;;;4.37;2.10;;;;;;;23.44;100.00;100176.76;1758198;81;21512;-70
2021/07/07 05:06:20;;;;;;;3.83;2.00;;;;;;;23.68;100.00;100181.53;1757913;79;21130;-70
2021/07/07 05:08:48;;;;;;;3.57;2.10;;;;;;;23.66;100.00;100179.13;1757859;81;20954;-72
2021/07/07 05:11:15;;;;;;;4.00;2.27;;;;;;;23.78;100.00;100182.27;1757245;81;21046;-69
2021/07/07 05:13:42;;;;;;;4.20;2.13;;;;;;;24.01;100.00;100186.16;1756802;81;21060;-65
2021/07/07 05:16:08;;;;;;;3.60;2.10;;;;;;;23.83;100.00;100178.80;1758295;81;21080;-70
2021/07/07 05:18:35;;;;;;;3.27;2.10;;;;;;;23.39;100.00;100187.42;1758472;81;21130;-70
2021/07/07 05:21:02;;;;;;;6.80;2.20;;;;;;;24.25;100.00;100182.86;1755154;81;21601;-71
2021/07/07 05:23:33;;;;;;;4.20;2.23;;;;;;;24.58;100.00;100179.19;1751079;81;21065;-62
2021/07/07 05:25:59;;;;;;;7.97;2.30;;;;;;;24.91;100.00;100181.06;1751183;81;21101;-69
2021/07/07 05:28:25;;;;;;;4.83;2.33;;;;;;;25.12;100.00;100183.05;1757995;81;21067;-69
2021/07/07 05:30:54;;;;;;;7.03;2.50;;;;;;;25.41;100.00;100184.33;1757947;81;22155;-68
2021/07/07 05:33:21;;;;;;;5.03;2.33;;;;;;;25.60;100.00;100182.27;1754710;81;21286;-68
2021/07/07 05:35:47;;;;;;;5.50;2.50;;;;;;;25.54;100.00;100186.88;1749332;81;20970;-71
2021/07/07 05:38:14;;;;;;;4.30;2.20;;;;;;;25.89;100.00;100183.02;1754266;81;21057;-69
2021/07/07 05:40:41;;;;;;;5.60;2.03;;;;;;;26.09;100.00;100189.95;1754656;80;21108;-66
2021/07/07 05:43:07;;;;;;;4.87;2.60;;;;;;;26.12;100.00;100201.95;1758797;81;21040;-66
2021/07/07 05:45:34;;;;;;;4.23;2.03;;;;;;;26.34;100.00;100197.38;1756657;81;21661;-61
2021/07/07 05:48:01;;;;;;;3.52;2.20;;;;;;;26.44;100.00;100187.34;1755921;81;21554;-68
2021/07/07 05:50:27;;;;;;;4.15;2.27;;;;;;;26.55;100.00;100206.70;1757264;79;21702;-66
2021/07/07 05:52:54;;;;;;;3.25;2.20;;;;;;;26.73;100.00;100204.30;1758176;81;21013;-67
2021/07/07 05:55:21;;;;;;;6.67;2.22;;;;;;;26.93;100.00;100202.11;1757819;81;21112;-67
2021/07/07 05:57:48;;;;;;;3.50;2.20;;;;;;;27.09;100.00;100200.50;1756949;81;21072;-63
2021/07/07 06:00:18;;;;;;;3.52;2.33;;;;;;;27.10;100.00;100202.87;1757083;81;21037;-67
2021/07/07 06:02:47;;;;;;;2.60;2.08;;;;;;;27.27;100.00;100208.23;1758336;81;21456;-67
2021/07/07 06:05:14;;;;;;;5.12;2.50;;;;;;;27.26;100.00;100207.98;1756856;81;21069;-67
2021/07/07 06:07:41;;;;;;;4.40;2.15;;;;;;;27.57;100.00;100206.86;1757950;81;21140;-65
2021/07/07 06:10:09;;;;;;;4.70;2.62;;;;;;;27.73;100.00;100204.67;1758331;81;21018;-68
2021/07/07 06:12:35;;;;;;;3.02;2.08;;;;;;;27.37;100.00;100207.50;1758661;81;21000;-67
2021/07/07 06:15:04;;;;;;;4.17;2.42;;;;;;;27.44;100.00;100207.12;1756311;80;20882;-68
2021/07/07 06:17:30;;;;;;;3.95;2.10;;;;;;;27.68;100.00;100208.25;1757863;81;21026;-63
2021/07/07 06:19:57;;;;;;;5.05;2.15;;;;;;;27.81;100.00;100212.84;1756117;81;21589;-65
2021/07/07 06:22:24;;;;;;;5.72;2.80;;;;;;;27.93;100.00;100215.56;1757075;81;21005;-70
2021/07/07 06:24:51;;;;;;;6.00;2.33;;;;;;;28.29;100.00;100223.62;1757564;81;20998;-70
2021/07/07 06:27:18;;;;;;;6.37;2.52;;;;;;;28.75;100.00;100218.04;1757689;81;21034;-70
2021/07/07 06:29:44;;;;;;;3.85;2.30;;;;;;;28.63;100.00;100215.09;1756322;81;21040;-63
2021/07/07 06:32:13;;;;;;;4.03;2.30;;;;;;;29.05;100.00;100213.80;1757256;81;21636;-69
2021/07/07 06:34:41;;;;;;;6.20;3.67;;;;;;;29.49;100.00;100216.70;1757531;81;21777;-70
2021/07/07 06:37:09;;;;;;;8.30;3.22;;;;;;;29.91;100.00;100220.64;1757543;81;21029;-62
2021/07/07 06:39:37;;;;;;;9.53;3.77;;;;;;;30.20;100.00;100223.33;1756782;80;21149;-70
2021/07/07 06:42:04;;;;;;;6.33;2.62;;;;;;;30.36;100.00;100219.62;1754649;81;22395;-68
2021/07/07 06:44:31;;;;;;;5.20;2.70;;;;;;;30.30;93.51;100229.16;1771696;80;21111;-69
2021/07/07 06:46:58;;;;;;;8.40;3.42;;;;;;;30.21;97.32;100224.91;1769325;79;20998;-67
2021/07/07 06:49:26;;;;;;;6.03;2.60;;;;;;;30.33;91.43;100223.72;1769283;79;21051;-64
2021/07/07 06:51:53;;;;;;;8.18;2.47;;;;;;;30.32;86.17;100227.52;1768046;79;21165;-63
2021/07/07 06:54:20;;;;;;;6.90;2.55;;;;;;;30.24;95.70;100231.00;1768429;81;21721;-68
2021/07/07 06:56:46;;;;;;;3.98;2.60;;;;;;;29.60;100.00;100224.75;1768701;81;22253;-67
2021/07/07 06:59:13;;;;;;;7.72;2.55;;;;;;;30.07;100.00;100226.36;1769044;79;20986;-67
2021/07/07 07:01:41;;;;;;;4.72;2.33;;;;;;;30.22;100.00;100226.48;1767932;81;21465;-62
2021/07/07 07:04:08;;;;;;;5.60;2.72;;;;;;;30.03;97.15;100233.47;1768808;79;21073;-60
2021/07/07 07:06:35;;;;;;;4.05;2.12;;;;;;;30.09;100.00;100232.78;1769228;79;20928;-66
2021/07/07 07:09:04;;;;;;;3.90;2.67;;;;;;;30.47;98.31;100231.64;1768565;79;21067;-69
2021/07/07 07:11:31;;;;;;;5.95;2.20;;;;;;;30.04;93.92;100231.83;1768366;81;21466;-63
2021/07/07 07:13:59;;;;;;;3.98;2.02;;;;;;;30.28;95.53;100234.09;1768783;81;22428;-61
2021/07/07 07:16:25;;;;;;;6.05;2.50;;;;;;;30.26;92.55;100233.59;1768490;81;21068;-67
2021/07/07 07:18:54;;;;;;;3.87;2.60;;;;;;;30.31;93.21;100236.70;1769151;79;21593;-67
2021/07/07 07:21:20;;;;;;;6.62;3.25;;;;;;;30.32;95.79;100236.94;1767353;79;21170;-63
2021/07/07 07:23:48;;;;;;;4.15;2.10;;;;;;;30.29;97.97;100244.28;1768377;79;21113;-70
2021/07/07 07:26:14;;;;;;;3.37;2.25;;;;;;;30.13;96.78;100243.92;1766231;79;20951;-69
2021/07/07 07:28:42;;;;;;;4.22;2.45;;;;;;;30.17;96.13;100246.25;1769323;79;21176;-68
2021/07/07 07:31:08;;;;;;;4.75;2.98;;;;;;;30.19;89.13;100246.74;1769054;79;21076;-66
2021/07/07 07:33:35;;;;;;;7.45;2.65;;;;;;;29.89;92.04;100246.23;1768666;79;21147;-66
2021/07/07 07:36:04;;;;;;;4.75;2.10;;;;;;;29.80;95.35;100251.04;1768498;81;21273;-68
2021/07/07 07:38:38;;;;;;;5.28;2.25;;;;;;;29.72;100.00;100249.12;1769045;79;20996;-68
2021/07/07 07:41:02;;;;;;;9.30;3.00;;;;;;;29.60;100.00;100251.61;1764753;79;20991;-66
2021/07/07 07:43:28;;;;;;;4.53;3.10;;;;;;;29.57;100.00;100257.57;1765524;79;21209;-65
2021/07/07 07:45:55;;;;;;;6.78;3.47;;;;;;;29.59;100.00;100260.78;1768163;79;22166;-67
2021/07/07 07:48:23;;;;;;;5.15;2.37;;;;;;;29.46;100.00;100257.05;1767998;81;20968;-65
2021/07/07 07:50:51;;;;;;;6.67;2.95;;;;;;;29.46;100.00;100264.31;1762236;79;21058;-68
2021/07/07 07:53:17;;;;;;;4.28;2.72;;;;;;;29.65;100.00;100264.11;1768808;79;21000;-65
2021/07/07 07:55:45;;;;;;;5.47;3.00;;;;;;;29.58;100.00;100257.28;1764687;81;21075;-67
2021/07/07 07:58:17;;;;;;;5.60;2.50;;;;;;;29.77;100.00;100264.30;1750074;80;21225;-64
2021/07/07 08:00:43;;;;;;;5.75;2.98;;;;;;;29.99;100.00;100271.48;1763770;79;21446;-67
2021/07/07 08:03:09;;;;;;;6.97;2.85;;;;;;;29.92;100.00;100267.11;1756202;81;21376;-67
2021/07/07 08:05:38;;;;;;;5.75;2.70;;;;;;;30.10;100.00;100275.46;1756995;79;20940;-64
2021/07/07 08:08:06;;;;;;;4.58;2.75;;;;;;;30.28;100.00;100272.29;1755109;79;21081;-67
2021/07/07 08:10:33;;;;;;;17.50;3.58;;;;;;;30.44;100.00;100265.89;1759499;79;21127;-62
2021/07/07 08:13:01;;;;;;;3.72;2.10;;;;;;;30.51;100.00;100271.59;1757338;79;21089;-69
2021/07/07 08:15:28;;;;;;;7.47;2.47;;;;;;;30.88;99.89;100277.47;1758779;79;21555;-61
2021/07/07 08:17:56;;;;;;;6.17;2.67;;;;;;;31.10;95.05;100275.91;1752864;81;20964;-70
2021/07/07 08:20:23;;;;;;;5.42;2.50;;;;;;;31.19;98.46;100271.30;1754131;79;21051;-68
2021/07/07 08:22:51;;;;;;;4.55;2.65;;;;;;;31.59;96.28;100271.59;1756486;79;22088;-67
2021/07/07 08:25:18;;;;;;;3.67;2.58;;;;;;;31.86;88.25;100273.88;1767408;79;21121;-67
2021/07/07 08:27:45;;;;;;;6.40;2.67;;;;;;;31.87;90.89;100269.27;1766304;81;21090;-63
2021/07/07 08:30:14;;;;;;;6.28;2.87;;;;;;;32.39;86.45;100266.21;1768287;81;21090;-66
2021/07/07 08:32:42;;;;;;;4.60;2.20;;;;;;;32.59;84.74;100262.76;1768342;79;20929;-65
2021/07/07 08:35:10;;;;;;;4.87;2.40;;;;;;;32.84;82.98;100262.84;1767271;81;21805;-68
2021/07/07 08:37:39;;;;;;;8.58;2.77;;;;;;;33.20;71.46;100264.10;1768627;79;21631;-67
2021/07/07 08:40:07;;;;;;;5.22;2.52;;;;;;;33.49;74.06;100262.59;1768876;81;21927;-67
2021/07/07 08:42:40;;;;;;;6.10;2.60;;;;;;;33.69;69.96;100263.61;1770250;79;21435;-67
2021/07/07 08:45:08;;;;;;;7.25;2.70;;;;;;;33.78;68.01;100262.12;1770184;79;21394;-68
2021/07/07 08:47:41;;;;;;;3.92;2.50;;;;;;;33.82;68.76;100265.73;1768411;79;21126;-70
2021/07/07 08:50:18;;;;;;;6.35;2.72;;;;;;;33.98;62.19;100263.11;1770149;79;22003;-68
2021/07/07 08:52:44;;;;;;;4.50;2.70;;;;;;;34.08;61.84;100266.74;1769786;79;21469;-68
2021/07/07 08:55:13;;;;;;;5.03;2.67;;;;;;;34.23;63.39;100263.89;1769246;79;21070;-64
2021/07/07 08:57:42;;;;;;;4.40;2.27;;;;;;;34.36;62.56;100261.36;1768526;79;20951;-68
2021/07/07 09:00:17;;;;;;;4.17;2.17;;;;;;;34.41;63.75;100262.49;1768936;79;21757;-67
2021/07/07 09:02:55;;;;;;;5.97;3.12;;;;;;;34.56;62.46;100264.50;1766173;79;21098;-68
2021/07/07 09:05:22;;;;;;;4.40;2.37;;;;;;;34.61;63.30;100268.88;1769175;79;21051;-67
2021/07/07 09:07:49;;;;;;;7.83;3.42;;;;;;;34.38;63.23;100259.11;1769851;79;21102;-67
2021/07/07 09:10:26;;;;;;;5.40;2.70;;;;;;;34.77;68.35;100269.69;1768805;79;21007;-63
2021/07/07 09:12:54;;;;;;;4.87;2.83;;;;;;;35.16;60.55;100262.39;1768422;79;21129;-64
2021/07/07 09:15:22;;;;;;;4.62;3.10;;;;;;;35.22;53.62;100274.55;1768528;81;21027;-69
2021/07/07 09:17:51;;;;;;;3.90;2.58;;;;;;;35.08;56.66;100267.66;1765939;79;21487;-67
2021/07/07 09:20:29;;;;;;;;;;;;;;;35.17;56.14;100278.32;1771874;79;21444;-66
2021/07/07 09:23:21;;;;;;;5.87;3.17;;;;;;;35.35;56.18;100274.70;1769260;79;20192;-71
2021/07/07 09:26:03;;;;;;;3.40;2.67;;;;;;;35.05;59.06;100270.27;1769288;79;21764;-62
2021/07/07 09:28:34;;;;;;;4.67;3.02;;;;;;;35.18;54.89;100272.33;1768346;79;21106;-64
2021/07/07 09:31:23;;;;;;;;;;;;;;;35.09;55.38;100284.13;1762770;81;21063;-65
2021/07/07 09:33:50;;;;;;;5.65;2.85;;;;;;;34.89;52.77;100281.03;1761192;80;20234;-64
2021/07/07 09:36:23;;;;;;;5.78;3.20;;;;;;;34.61;57.17;100284.55;1760584;81;21035;-61
2021/07/07 09:38:51;;;;;;;5.80;3.30;;;;;;;34.47;63.78;100281.40;1760326;81;21140;-64
2021/07/07 09:41:19;;;;;;;5.17;2.90;;;;;;;34.26;62.78;100287.57;1759313;81;21026;-60
2021/07/07 09:43:51;;;;;;;10.50;3.35;;;;;;;33.89;66.33;100285.67;1759479;81;21003;-64
2021/07/07 09:46:19;;;;;;;5.17;3.62;;;;;;;33.53;79.29;100288.39;1759511;81;20975;-62
2021/07/07 09:48:47;;;;;;;6.45;3.58;;;;;;;33.04;79.29;100292.32;1756253;81;21030;-62
2021/07/07 09:51:14;;;;;;;4.10;3.33;;;;;;;32.64;86.10;100297.63;1758571;81;21196;-61
2021/07/07 09:53:40;;;;;;;4.58;3.52;;;;;;;32.26;91.38;100297.73;1756986;81;22150;-64
2021/07/07 09:56:07;;;;;;;7.87;3.62;;;;;;;31.98;92.90;100304.19;1758763;81;21110;-63
2021/07/07 09:58:34;;;;;;;5.30;3.27;;;;;;;31.51;99.72;100297.45;1758265;81;21518;-65
2021/07/07 10:01:01;;;;;;;7.33;4.17;;;;;;;31.32;100.00;100303.21;1759477;81;21157;-63
2021/07/07 10:03:27;;;;;;;5.95;3.52;;;;;;;31.38;100.00;100304.63;1758311;81;21085;-63
2021/07/07 10:05:55;;;;;;;5.40;3.80;;;;;;;31.00;100.00;100303.18;1759628;81;22145;-64
2021/07/07 10:08:22;;;;;;;7.30;3.92;;;;;;;30.99;100.00;100306.98;1742748;81;21118;-61
2021/07/07 10:10:48;;;;;;;6.40;3.65;;;;;;;31.00;100.00;100311.25;1759100;81;21078;-65
2021/07/07 10:13:15;;;;;;;5.00;3.90;;;;;;;30.91;100.00;100313.97;1759318;81;22250;-63
2021/07/07 10:15:41;;;;;;;6.85;4.40;;;;;;;30.82;100.00;100309.69;1758777;81;21116;-63
2021/07/07 10:18:08;;;;;;;4.97;3.87;;;;;;;30.49;100.00;100308.20;1759236;81;21067;-63
2021/07/07 10:20:35;;;;;;;5.80;4.03;;;;;;;30.33;100.00;100310.33;1759819;81;21757;-62
2021/07/07 10:23:03;;;;;;;4.53;3.95;;;;;;;30.52;100.00;100315.65;1758226;81;21004;-61
2021/07/07 10:25:32;;;;;;;9.60;4.00;;;;;;;30.76;100.00;100319.27;1758001;81;21063;-65
2021/07/07 10:28:02;;;;;;;4.58;3.92;;;;;;;30.96;100.00;100313.79;1739854;81;21258;-64
2021/07/07 10:30:50;;;;;;;5.60;4.15;;;;;;;31.53;100.00;100314.09;1759305;81;21042;-66
2021/07/07 10:33:20;;;;;;;6.45;4.40;;;;;;;32.17;100.00;100324.77;1751978;81;21034;-62
2021/07/07 10:35:47;;;;;;;5.95;4.37;;;;;;;32.42;100.00;100312.80;1760011;81;21054;-65
2021/07/07 10:38:15;;;;;;;6.08;4.42;;;;;;;32.88;100.00;100312.35;1759368;81;21087;-64
2021/07/07 10:40:49;;;;;;;4.75;3.67;;;;;;;33.30;96.32;100314.98;1759451;81;21111;-66
2021/07/07 10:43:44;;;;;;;4.40;3.45;;;;;;;33.55;84.15;100327.45;1757049;80;21542;-61
2021/07/07 10:46:13;;;;;;;7.97;4.20;;;;;;;33.82;82.36;100316.53;1742288;81;21571;-65
2021/07/07 10:48:41;;;;;;;4.30;3.90;;;;;;;33.65;80.60;100319.48;1716035;81;21571;-66
2021/07/07 10:51:24;;;;;;;5.87;4.03;;;;;;;33.76;83.95;100319.26;1777563;80;21520;-63
2021/07/07 10:53:50;;;;;;;6.08;3.90;;;;;;;33.65;79.15;100325.67;1747250;80;21520;-61
2021/07/07 10:56:16;;;;;;;6.42;4.30;;;;;;;33.39;82.50;100328.64;1712516;81;21032;-66
2021/07/07 10:58:43;;;;;;;6.22;4.17;;;;;;;33.21;85.73;100318.35;1752469;79;20967;-65
2021/07/07 11:01:33;;;;;;;8.50;3.87;;;;;;;33.09;94.11;100318.54;1763581;79;21007;-65
2021/07/07 11:04:03;;;;;;;6.75;4.10;;;;;;;33.05;87.93;100314.93;1769342;79;21113;-61
2021/07/07 11:06:37;;;;;;;5.08;4.05;;;;;;;32.85;82.93;100317.09;1772685;80;21125;-64
2021/07/07 11:09:11;;;;;;;6.35;4.10;;;;;;;32.77;85.45;100313.34;1772421;80;21176;-62
2021/07/07 11:11:41;;;;;;;5.12;3.62;;;;;;;32.58;90.54;100318.40;1770822;80;20998;-64
2021/07/07 11:14:27;;;;;;;5.78;3.90;;;;;;;32.77;89.75;100321.44;1769512;79;21471;-60
2021/07/07 11:16:57;;;;;;;7.60;4.12;;;;;;;32.59;87.81;100320.78;1772179;80;21312;-63
2021/07/07 11:19:47;;;;;;;7.80;4.10;;;;;;;32.38;94.86;100318.60;1771839;80;21026;-59
2021/07/07 11:22:16;;;;;;;7.35;4.35;;;;;;;32.12;100.00;100327.64;1770554;80;20991;-63
2021/07/07 11:24:48;;;;;;;6.53;4.17;;;;;;;32.19;100.00;100327.12;1772919;79;21062;-64